sensor_id;sensor_type;location;lat;lon;timestamp;P1;durP1;ratioP1;P2;durP2;ratioP2
3068;SDS011;1545;51.728;8.796;2023-07-31T00:01:47;5.83;;;4.10;;
3068;SDS011;1545;51.728;8.796;2023-07-31T00:04:13;7.50;;;4.27;;
3068;SDS011;1545;51.728;8.796;2023-07-31T00:06:38;11.83;;;4.27;;
3068;SDS011;1545;51.728;8.796;2023-07-31T00:09:04;5.83;;;4.37;;
3068;SDS011;1545;51.728;8.796;2023-07-31T00:11:29;6.67;;;4.80;;
3068;SDS011;1545;51.728;8.796;2023-07-31T00:13:55;6.57;;;4.73;;
3068;SDS011;1545;51.728;8.796;2023-07-31T00:16:20;11.50;;;5.30;;
3068;SDS011;1545;51.728;8.796;2023-07-31T00:18:46;11.37;;;5.30;;
3068;SDS011;1545;51.728;8.796;2023-07-31T00:21:11;9.13;;;4.90;;
3068;SDS011;1545;51.728;8.796;2023-07-31T00:23:37;10.00;;;5.50;;
3068;SDS011;1545;51.728;8.796;2023-07-31T00:26:02;8.80;;;5.70;;
3068;SDS011;1545;51.728;8.796;2023-07-31T00:28:28;7.37;;;5.60;;
3068;SDS011;1545;51.728;8.796;2023-07-31T00:30:53;8.03;;;5.70;;
3068;SDS011;1545;51.728;8.796;2023-07-31T00:33:19;27.07;;;6.33;;
3068;SDS011;1545;51.728;8.796;2023-07-31T00:35:45;8.73;;;5.97;;
3068;SDS011;1545;51.728;8.796;2023-07-31T00:38:10;10.47;;;6.33;;
3068;SDS011;1545;51.728;8.796;2023-07-31T00:40:36;10.40;;;5.80;;
3068;SDS011;1545;51.728;8.796;2023-07-31T00:43:02;9.43;;;6.23;;
3068;SDS011;1545;51.728;8.796;2023-07-31T00:45:28;9.10;;;5.77;;
3068;SDS011;1545;51.728;8.796;2023-07-31T00:47:54;10.43;;;6.00;;
3068;SDS011;1545;51.728;8.796;2023-07-31T00:50:20;10.87;;;5.53;;
3068;SDS011;1545;51.728;8.796;2023-07-31T00:52:47;10.60;;;6.07;;
3068;SDS011;1545;51.728;8.796;2023-07-31T00:55:13;12.53;;;6.13;;
3068;SDS011;1545;51.728;8.796;2023-07-31T00:57:38;10.57;;;5.77;;
3068;SDS011;1545;51.728;8.796;2023-07-31T01:00:07;12.23;;;5.97;;
3068;SDS011;1545;51.728;8.796;2023-07-31T01:02:33;11.73;;;5.40;;
3068;SDS011;1545;51.728;8.796;2023-07-31T01:04:59;9.63;;;5.47;;
3068;SDS011;1545;51.728;8.796;2023-07-31T01:07:27;10.20;;;5.80;;
3068;SDS011;1545;51.728;8.796;2023-07-31T01:10:22;7.90;;;5.17;;
3068;SDS011;1545;51.728;8.796;2023-07-31T01:12:51;10.53;;;5.33;;
3068;SDS011;1545;51.728;8.796;2023-07-31T01:15:18;7.23;;;4.67;;
3068;SDS011;1545;51.728;8.796;2023-07-31T01:17:43;7.87;;;5.20;;
3068;SDS011;1545;51.728;8.796;2023-07-31T01:20:11;9.17;;;5.43;;
3068;SDS011;1545;51.728;8.796;2023-07-31T01:31:30;14.17;;;5.60;;
3068;SDS011;1545;51.728;8.796;2023-07-31T01:33:58;10.57;;;5.13;;
3068;SDS011;1545;51.728;8.796;2023-07-31T01:36:26;10.77;;;5.70;;
3068;SDS011;1545;51.728;8.796;2023-07-31T01:38:51;9.73;;;5.93;;
3068;SDS011;1545;51.728;8.796;2023-07-31T01:41:17;9.60;;;5.93;;
3068;SDS011;1545;51.728;8.796;2023-07-31T01:43:43;7.83;;;5.63;;
3068;SDS011;1545;51.728;8.796;2023-07-31T01:46:09;8.47;;;5.50;;
3068;SDS011;1545;51.728;8.796;2023-07-31T01:48:35;10.17;;;6.03;;
3068;SDS011;1545;51.728;8.796;2023-07-31T01:51:02;13.00;;;5.27;;
3068;SDS011;1545;51.728;8.796;2023-07-31T01:53:28;9.63;;;4.70;;
3068;SDS011;1545;51.728;8.796;2023-07-31T01:55:55;8.47;;;4.77;;
3068;SDS011;1545;51.728;8.796;2023-07-31T01:58:20;10.30;;;4.60;;
3068;SDS011;1545;51.728;8.796;2023-07-31T02:00:46;8.20;;;4.57;;
3068;SDS011;1545;51.728;8.796;2023-07-31T02:03:11;8.93;;;4.50;;
3068;SDS011;1545;51.728;8.796;2023-07-31T02:05:43;7.23;;;4.40;;
3068;SDS011;1545;51.728;8.796;2023-07-31T02:08:10;7.40;;;4.10;;
3068;SDS011;1545;51.728;8.796;2023-07-31T02:10:35;11.03;;;4.63;;
3068;SDS011;1545;51.728;8.796;2023-07-31T02:13:00;6.53;;;4.30;;
3068;SDS011;1545;51.728;8.796;2023-07-31T02:15:28;6.50;;;4.30;;
3068;SDS011;1545;51.728;8.796;2023-07-31T02:17:57;5.70;;;3.90;;
3068;SDS011;1545;51.728;8.796;2023-07-31T02:20:23;5.67;;;3.67;;
3068;SDS011;1545;51.728;8.796;2023-07-31T02:22:48;5.60;;;3.63;;
3068;SDS011;1545;51.728;8.796;2023-07-31T02:25:14;3.57;;;3.23;;
3068;SDS011;1545;51.728;8.796;2023-07-31T02:27:39;5.87;;;3.73;;
3068;SDS011;1545;51.728;8.796;2023-07-31T02:30:05;5.70;;;3.53;;
3068;SDS011;1545;51.728;8.796;2023-07-31T02:32:31;6.53;;;3.53;;
3068;SDS011;1545;51.728;8.796;2023-07-31T02:34:57;6.07;;;3.73;;
3068;SDS011;1545;51.728;8.796;2023-07-31T02:37:22;4.40;;;3.40;;
3068;SDS011;1545;51.728;8.796;2023-07-31T02:39:48;3.67;;;3.10;;
3068;SDS011;1545;51.728;8.796;2023-07-31T02:42:14;3.83;;;3.20;;
3068;SDS011;1545;51.728;8.796;2023-07-31T02:44:39;5.53;;;3.33;;
3068;SDS011;1545;51.728;8.796;2023-07-31T02:47:05;5.73;;;3.50;;
3068;SDS011;1545;51.728;8.796;2023-07-31T02:49:31;6.13;;;3.90;;
3068;SDS011;1545;51.728;8.796;2023-07-31T02:51:56;6.53;;;4.10;;
3068;SDS011;1545;51.728;8.796;2023-07-31T02:54:22;11.17;;;5.70;;
3068;SDS011;1545;51.728;8.796;2023-07-31T02:56:48;10.80;;;5.07;;
3068;SDS011;1545;51.728;8.796;2023-07-31T02:59:14;11.80;;;6.23;;
3068;SDS011;1545;51.728;8.796;2023-07-31T03:01:39;11.40;;;5.40;;
3068;SDS011;1545;51.728;8.796;2023-07-31T03:04:05;13.87;;;6.60;;
3068;SDS011;1545;51.728;8.796;2023-07-31T03:06:30;21.27;;;6.53;;
3068;SDS011;1545;51.728;8.796;2023-07-31T03:08:56;17.00;;;6.93;;
3068;SDS011;1545;51.728;8.796;2023-07-31T03:11:21;22.53;;;7.40;;
3068;SDS011;1545;51.728;8.796;2023-07-31T03:13:47;16.87;;;7.60;;
3068;SDS011;1545;51.728;8.796;2023-07-31T03:16:12;20.57;;;8.60;;
3068;SDS011;1545;51.728;8.796;2023-07-31T03:18:38;25.80;;;9.23;;
3068;SDS011;1545;51.728;8.796;2023-07-31T03:21:04;22.70;;;9.00;;
3068;SDS011;1545;51.728;8.796;2023-07-31T03:23:29;24.50;;;8.67;;
3068;SDS011;1545;51.728;8.796;2023-07-31T03:26:06;22.23;;;9.20;;
3068;SDS011;1545;51.728;8.796;2023-07-31T03:28:32;28.43;;;9.17;;
3068;SDS011;1545;51.728;8.796;2023-07-31T03:30:58;28.07;;;9.07;;
3068;SDS011;1545;51.728;8.796;2023-07-31T03:33:24;27.97;;;9.23;;
3068;SDS011;1545;51.728;8.796;2023-07-31T03:35:50;25.97;;;8.77;;
3068;SDS011;1545;51.728;8.796;2023-07-31T03:38:16;30.93;;;8.87;;
3068;SDS011;1545;51.728;8.796;2023-07-31T03:40:41;26.03;;;9.40;;
3068;SDS011;1545;51.728;8.796;2023-07-31T03:43:07;22.90;;;8.57;;
3068;SDS011;1545;51.728;8.796;2023-07-31T03:45:32;24.60;;;9.10;;
3068;SDS011;1545;51.728;8.796;2023-07-31T03:47:58;21.93;;;8.77;;
3068;SDS011;1545;51.728;8.796;2023-07-31T03:50:23;28.13;;;8.47;;
3068;SDS011;1545;51.728;8.796;2023-07-31T03:52:50;18.03;;;7.93;;
3068;SDS011;1545;51.728;8.796;2023-07-31T03:55:15;25.67;;;7.60;;
3068;SDS011;1545;51.728;8.796;2023-07-31T03:57:41;19.37;;;7.30;;
3068;SDS011;1545;51.728;8.796;2023-07-31T04:00:06;18.40;;;8.30;;
3068;SDS011;1545;51.728;8.796;2023-07-31T04:02:32;18.97;;;7.87;;
3068;SDS011;1545;51.728;8.796;2023-07-31T04:04:58;17.10;;;7.20;;
3068;SDS011;1545;51.728;8.796;2023-07-31T04:07:23;19.33;;;7.50;;
3068;SDS011;1545;51.728;8.796;2023-07-31T04:09:49;15.30;;;7.23;;
3068;SDS011;1545;51.728;8.796;2023-07-31T04:12:14;20.27;;;7.20;;
3068;SDS011;1545;51.728;8.796;2023-07-31T04:14:40;20.67;;;7.50;;
3068;SDS011;1545;51.728;8.796;2023-07-31T04:17:05;23.40;;;7.93;;
3068;SDS011;1545;51.728;8.796;2023-07-31T04:19:31;20.97;;;7.10;;
3068;SDS011;1545;51.728;8.796;2023-07-31T04:21:56;24.47;;;7.43;;
3068;SDS011;1545;51.728;8.796;2023-07-31T04:24:22;19.33;;;7.37;;
3068;SDS011;1545;51.728;8.796;2023-07-31T04:26:50;16.40;;;7.27;;
3068;SDS011;1545;51.728;8.796;2023-07-31T04:29:17;16.73;;;7.60;;
3068;SDS011;1545;51.728;8.796;2023-07-31T04:31:42;19.87;;;7.47;;
3068;SDS011;1545;51.728;8.796;2023-07-31T04:34:08;17.13;;;7.80;;
3068;SDS011;1545;51.728;8.796;2023-07-31T04:36:34;19.83;;;8.07;;
3068;SDS011;1545;51.728;8.796;2023-07-31T04:39:00;28.43;;;7.87;;
3068;SDS011;1545;51.728;8.796;2023-07-31T04:41:25;26.57;;;7.43;;
3068;SDS011;1545;51.728;8.796;2023-07-31T04:43:51;26.27;;;7.97;;
3068;SDS011;1545;51.728;8.796;2023-07-31T04:46:17;19.17;;;7.87;;
3068;SDS011;1545;51.728;8.796;2023-07-31T04:48:42;22.40;;;7.10;;
3068;SDS011;1545;51.728;8.796;2023-07-31T04:51:08;21.50;;;7.37;;
3068;SDS011;1545;51.728;8.796;2023-07-31T04:53:36;22.83;;;7.37;;
3068;SDS011;1545;51.728;8.796;2023-07-31T04:56:02;23.80;;;7.70;;
3068;SDS011;1545;51.728;8.796;2023-07-31T04:58:27;17.83;;;7.63;;
3068;SDS011;1545;51.728;8.796;2023-07-31T05:00:53;19.40;;;6.57;;
3068;SDS011;1545;51.728;8.796;2023-07-31T05:03:19;18.63;;;7.17;;
3068;SDS011;1545;51.728;8.796;2023-07-31T05:05:44;21.27;;;7.40;;
3068;SDS011;1545;51.728;8.796;2023-07-31T05:08:10;20.47;;;7.23;;
3068;SDS011;1545;51.728;8.796;2023-07-31T05:10:35;24.70;;;7.07;;
3068;SDS011;1545;51.728;8.796;2023-07-31T05:13:01;18.70;;;7.10;;
3068;SDS011;1545;51.728;8.796;2023-07-31T05:15:26;17.70;;;6.67;;
3068;SDS011;1545;51.728;8.796;2023-07-31T05:17:52;18.80;;;6.97;;
3068;SDS011;1545;51.728;8.796;2023-07-31T05:20:17;17.50;;;6.97;;
3068;SDS011;1545;51.728;8.796;2023-07-31T05:22:43;17.70;;;6.90;;
3068;SDS011;1545;51.728;8.796;2023-07-31T05:25:08;18.13;;;7.10;;
3068;SDS011;1545;51.728;8.796;2023-07-31T05:27:34;23.57;;;7.13;;
3068;SDS011;1545;51.728;8.796;2023-07-31T05:29:59;20.47;;;6.33;;
3068;SDS011;1545;51.728;8.796;2023-07-31T05:32:25;17.97;;;6.33;;
3068;SDS011;1545;51.728;8.796;2023-07-31T05:34:51;18.10;;;6.47;;
3068;SDS011;1545;51.728;8.796;2023-07-31T05:37:17;16.43;;;6.70;;
3068;SDS011;1545;51.728;8.796;2023-07-31T05:39:43;24.33;;;6.87;;
3068;SDS011;1545;51.728;8.796;2023-07-31T05:42:09;24.53;;;7.20;;
3068;SDS011;1545;51.728;8.796;2023-07-31T05:44:34;16.93;;;6.43;;
3068;SDS011;1545;51.728;8.796;2023-07-31T05:47:00;21.67;;;7.10;;
3068;SDS011;1545;51.728;8.796;2023-07-31T05:49:25;14.10;;;6.57;;
3068;SDS011;1545;51.728;8.796;2023-07-31T05:51:51;14.97;;;6.53;;
3068;SDS011;1545;51.728;8.796;2023-07-31T05:54:16;17.93;;;6.83;;
3068;SDS011;1545;51.728;8.796;2023-07-31T05:56:42;17.93;;;6.90;;
3068;SDS011;1545;51.728;8.796;2023-07-31T05:59:08;20.90;;;6.80;;
3068;SDS011;1545;51.728;8.796;2023-07-31T06:01:34;14.70;;;7.40;;
3068;SDS011;1545;51.728;8.796;2023-07-31T06:04:00;15.97;;;6.70;;
3068;SDS011;1545;51.728;8.796;2023-07-31T06:06:26;21.27;;;6.67;;
3068;SDS011;1545;51.728;8.796;2023-07-31T06:08:52;24.43;;;7.73;;
3068;SDS011;1545;51.728;8.796;2023-07-31T06:11:20;19.37;;;6.80;;
3068;SDS011;1545;51.728;8.796;2023-07-31T06:13:46;20.07;;;7.03;;
3068;SDS011;1545;51.728;8.796;2023-07-31T06:16:13;16.53;;;6.53;;
3068;SDS011;1545;51.728;8.796;2023-07-31T06:18:38;27.07;;;7.60;;
3068;SDS011;1545;51.728;8.796;2023-07-31T06:21:04;18.37;;;6.60;;
3068;SDS011;1545;51.728;8.796;2023-07-31T06:23:30;18.50;;;6.73;;
3068;SDS011;1545;51.728;8.796;2023-07-31T06:25:56;14.20;;;6.77;;
3068;SDS011;1545;51.728;8.796;2023-07-31T06:28:25;17.40;;;6.53;;
3068;SDS011;1545;51.728;8.796;2023-07-31T06:30:54;15.50;;;6.60;;
3068;SDS011;1545;51.728;8.796;2023-07-31T06:33:19;20.10;;;6.87;;
3068;SDS011;1545;51.728;8.796;2023-07-31T06:35:45;18.73;;;6.33;;
3068;SDS011;1545;51.728;8.796;2023-07-31T06:38:11;19.87;;;6.53;;
3068;SDS011;1545;51.728;8.796;2023-07-31T06:40:36;29.47;;;12.33;;
3068;SDS011;1545;51.728;8.796;2023-07-31T06:43:02;25.43;;;7.30;;
3068;SDS011;1545;51.728;8.796;2023-07-31T06:45:34;18.70;;;6.50;;
3068;SDS011;1545;51.728;8.796;2023-07-31T06:48:00;25.57;;;7.37;;
3068;SDS011;1545;51.728;8.796;2023-07-31T06:50:27;21.73;;;7.57;;
3068;SDS011;1545;51.728;8.796;2023-07-31T06:52:53;20.20;;;7.13;;
3068;SDS011;1545;51.728;8.796;2023-07-31T06:55:20;19.43;;;6.70;;
3068;SDS011;1545;51.728;8.796;2023-07-31T06:57:47;18.77;;;6.30;;
3068;SDS011;1545;51.728;8.796;2023-07-31T07:00:13;14.17;;;6.07;;
3068;SDS011;1545;51.728;8.796;2023-07-31T07:02:39;20.33;;;7.07;;
3068;SDS011;1545;51.728;8.796;2023-07-31T07:05:06;15.47;;;7.33;;
3068;SDS011;1545;51.728;8.796;2023-07-31T07:07:32;17.60;;;7.20;;
3068;SDS011;1545;51.728;8.796;2023-07-31T07:09:57;22.67;;;7.50;;
3068;SDS011;1545;51.728;8.796;2023-07-31T07:12:24;19.30;;;7.17;;
3068;SDS011;1545;51.728;8.796;2023-07-31T07:14:50;21.47;;;7.10;;
3068;SDS011;1545;51.728;8.796;2023-07-31T07:17:17;16.93;;;6.50;;
3068;SDS011;1545;51.728;8.796;2023-07-31T07:19:43;14.90;;;6.23;;
3068;SDS011;1545;51.728;8.796;2023-07-31T07:22:10;19.10;;;6.30;;
3068;SDS011;1545;51.728;8.796;2023-07-31T07:24:36;13.97;;;6.50;;
3068;SDS011;1545;51.728;8.796;2023-07-31T07:27:02;19.43;;;6.90;;
3068;SDS011;1545;51.728;8.796;2023-07-31T07:29:27;22.70;;;7.10;;
3068;SDS011;1545;51.728;8.796;2023-07-31T07:31:53;15.77;;;6.73;;
3068;SDS011;1545;51.728;8.796;2023-07-31T07:34:18;16.80;;;7.27;;
3068;SDS011;1545;51.728;8.796;2023-07-31T07:36:44;14.73;;;7.23;;
3068;SDS011;1545;51.728;8.796;2023-07-31T07:39:10;15.73;;;7.40;;
3068;SDS011;1545;51.728;8.796;2023-07-31T07:41:36;17.97;;;7.50;;
3068;SDS011;1545;51.728;8.796;2023-07-31T07:44:01;17.93;;;7.40;;
3068;SDS011;1545;51.728;8.796;2023-07-31T07:46:27;20.13;;;7.23;;
3068;SDS011;1545;51.728;8.796;2023-07-31T07:48:52;18.43;;;7.50;;
3068;SDS011;1545;51.728;8.796;2023-07-31T07:51:18;16.87;;;7.43;;
3068;SDS011;1545;51.728;8.796;2023-07-31T07:53:43;19.83;;;7.50;;
3068;SDS011;1545;51.728;8.796;2023-07-31T07:56:09;19.50;;;8.63;;
3068;SDS011;1545;51.728;8.796;2023-07-31T07:58:34;18.00;;;7.90;;
3068;SDS011;1545;51.728;8.796;2023-07-31T08:01:00;16.53;;;8.17;;
3068;SDS011;1545;51.728;8.796;2023-07-31T08:03:25;23.13;;;8.23;;
3068;SDS011;1545;51.728;8.796;2023-07-31T08:05:51;16.87;;;7.80;;
3068;SDS011;1545;51.728;8.796;2023-07-31T08:08:16;16.50;;;8.13;;
3068;SDS011;1545;51.728;8.796;2023-07-31T08:10:42;17.53;;;8.23;;
3068;SDS011;1545;51.728;8.796;2023-07-31T08:13:09;19.57;;;9.37;;
3068;SDS011;1545;51.728;8.796;2023-07-31T08:15:36;19.83;;;9.37;;
3068;SDS011;1545;51.728;8.796;2023-07-31T08:18:02;16.70;;;6.50;;
3068;SDS011;1545;51.728;8.796;2023-07-31T08:20:27;12.13;;;6.80;;
3068;SDS011;1545;51.728;8.796;2023-07-31T08:22:53;21.47;;;10.77;;
3068;SDS011;1545;51.728;8.796;2023-07-31T08:25:19;21.33;;;10.23;;
3068;SDS011;1545;51.728;8.796;2023-07-31T08:27:44;26.23;;;9.80;;
3068;SDS011;1545;51.728;8.796;2023-07-31T08:30:11;23.57;;;9.97;;
3068;SDS011;1545;51.728;8.796;2023-07-31T08:32:37;22.43;;;10.13;;
3068;SDS011;1545;51.728;8.796;2023-07-31T08:35:02;18.23;;;10.33;;
3068;SDS011;1545;51.728;8.796;2023-07-31T08:37:28;21.83;;;9.57;;
3068;SDS011;1545;51.728;8.796;2023-07-31T08:39:54;14.20;;;8.50;;
3068;SDS011;1545;51.728;8.796;2023-07-31T08:42:19;18.07;;;8.70;;
3068;SDS011;1545;51.728;8.796;2023-07-31T08:44:45;16.13;;;8.83;;
3068;SDS011;1545;51.728;8.796;2023-07-31T08:47:12;16.70;;;8.80;;
3068;SDS011;1545;51.728;8.796;2023-07-31T08:49:38;15.17;;;7.63;;
3068;SDS011;1545;51.728;8.796;2023-07-31T08:52:05;13.13;;;7.60;;
3068;SDS011;1545;51.728;8.796;2023-07-31T08:54:31;14.77;;;7.73;;
3068;SDS011;1545;51.728;8.796;2023-07-31T08:56:58;12.57;;;7.57;;
3068;SDS011;1545;51.728;8.796;2023-07-31T08:59:25;16.03;;;7.20;;
3068;SDS011;1545;51.728;8.796;2023-07-31T09:01:54;16.03;;;7.77;;
3068;SDS011;1545;51.728;8.796;2023-07-31T09:04:22;10.90;;;7.03;;
3068;SDS011;1545;51.728;8.796;2023-07-31T09:06:51;12.47;;;6.83;;
3068;SDS011;1545;51.728;8.796;2023-07-31T09:09:22;11.67;;;7.80;;
3068;SDS011;1545;51.728;8.796;2023-07-31T09:11:47;20.83;;;9.17;;
3068;SDS011;1545;51.728;8.796;2023-07-31T09:14:14;16.27;;;7.13;;
3068;SDS011;1545;51.728;8.796;2023-07-31T09:16:54;12.30;;;7.17;;
3068;SDS011;1545;51.728;8.796;2023-07-31T09:19:32;8.70;;;5.90;;
3068;SDS011;1545;51.728;8.796;2023-07-31T09:21:59;13.67;;;6.27;;
3068;SDS011;1545;51.728;8.796;2023-07-31T09:24:29;16.60;;;6.20;;
3068;SDS011;1545;51.728;8.796;2023-07-31T09:26:57;10.43;;;6.27;;
3068;SDS011;1545;51.728;8.796;2023-07-31T09:29:24;9.67;;;5.70;;
3068;SDS011;1545;51.728;8.796;2023-07-31T09:31:51;13.20;;;6.07;;
3068;SDS011;1545;51.728;8.796;2023-07-31T09:34:17;10.97;;;5.97;;
3068;SDS011;1545;51.728;8.796;2023-07-31T09:36:44;11.23;;;5.40;;
3068;SDS011;1545;51.728;8.796;2023-07-31T09:39:15;9.53;;;4.90;;
3068;SDS011;1545;51.728;8.796;2023-07-31T09:41:46;10.60;;;5.27;;
3068;SDS011;1545;51.728;8.796;2023-07-31T09:44:18;13.03;;;5.47;;
3068;SDS011;1545;51.728;8.796;2023-07-31T09:46:43;8.43;;;5.00;;
3068;SDS011;1545;51.728;8.796;2023-07-31T09:49:09;9.37;;;4.70;;
3068;SDS011;1545;51.728;8.796;2023-07-31T09:51:40;11.90;;;5.40;;
3068;SDS011;1545;51.728;8.796;2023-07-31T09:54:16;10.23;;;4.80;;
3068;SDS011;1545;51.728;8.796;2023-07-31T09:59:10;11.80;;;5.27;;
3068;SDS011;1545;51.728;8.796;2023-07-31T10:01:37;12.60;;;4.43;;
3068;SDS011;1545;51.728;8.796;2023-07-31T10:04:04;6.50;;;4.53;;
3068;SDS011;1545;51.728;8.796;2023-07-31T10:06:32;7.33;;;4.23;;
3068;SDS011;1545;51.728;8.796;2023-07-31T10:08:59;8.50;;;4.23;;
3068;SDS011;1545;51.728;8.796;2023-07-31T10:11:25;8.77;;;4.27;;
3068;SDS011;1545;51.728;8.796;2023-07-31T10:13:55;7.27;;;4.30;;
3068;SDS011;1545;51.728;8.796;2023-07-31T10:16:21;6.80;;;4.40;;
3068;SDS011;1545;51.728;8.796;2023-07-31T10:18:48;9.63;;;4.43;;
3068;SDS011;1545;51.728;8.796;2023-07-31T10:21:15;11.73;;;4.17;;
3068;SDS011;1545;51.728;8.796;2023-07-31T10:23:41;5.47;;;3.70;;
3068;SDS011;1545;51.728;8.796;2023-07-31T10:26:07;9.50;;;4.13;;
3068;SDS011;1545;51.728;8.796;2023-07-31T10:28:34;6.27;;;3.70;;
3068;SDS011;1545;51.728;8.796;2023-07-31T10:31:02;7.30;;;3.87;;
3068;SDS011;1545;51.728;8.796;2023-07-31T10:33:29;6.30;;;3.57;;
3068;SDS011;1545;51.728;8.796;2023-07-31T10:38:42;7.00;;;4.07;;
3068;SDS011;1545;51.728;8.796;2023-07-31T10:41:08;6.47;;;4.00;;
3068;SDS011;1545;51.728;8.796;2023-07-31T10:43:35;7.50;;;4.20;;
3068;SDS011;1545;51.728;8.796;2023-07-31T10:46:08;7.27;;;3.87;;
3068;SDS011;1545;51.728;8.796;2023-07-31T10:48:36;6.23;;;3.70;;
3068;SDS011;1545;51.728;8.796;2023-07-31T10:51:06;6.10;;;4.07;;
3068;SDS011;1545;51.728;8.796;2023-07-31T10:53:34;7.00;;;4.43;;
3068;SDS011;1545;51.728;8.796;2023-07-31T10:56:01;9.67;;;4.80;;
3068;SDS011;1545;51.728;8.796;2023-07-31T10:58:28;7.00;;;4.20;;
3068;SDS011;1545;51.728;8.796;2023-07-31T11:00:57;10.77;;;4.43;;
3068;SDS011;1545;51.728;8.796;2023-07-31T11:03:40;7.03;;;4.67;;
3068;SDS011;1545;51.728;8.796;2023-07-31T11:06:08;10.07;;;4.73;;
3068;SDS011;1545;51.728;8.796;2023-07-31T11:08:35;5.80;;;3.93;;
3068;SDS011;1545;51.728;8.796;2023-07-31T11:11:07;5.90;;;3.83;;
3068;SDS011;1545;51.728;8.796;2023-07-31T11:16:06;6.83;;;3.47;;
3068;SDS011;1545;51.728;8.796;2023-07-31T11:18:32;5.17;;;3.20;;
3068;SDS011;1545;51.728;8.796;2023-07-31T11:20:58;4.67;;;3.30;;
3068;SDS011;1545;51.728;8.796;2023-07-31T11:23:23;5.43;;;3.30;;
3068;SDS011;1545;51.728;8.796;2023-07-31T11:25:49;6.10;;;3.37;;
3068;SDS011;1545;51.728;8.796;2023-07-31T11:28:16;5.03;;;2.87;;
3068;SDS011;1545;51.728;8.796;2023-07-31T11:30:43;3.63;;;2.67;;
3068;SDS011;1545;51.728;8.796;2023-07-31T11:33:10;4.70;;;3.00;;
3068;SDS011;1545;51.728;8.796;2023-07-31T11:35:40;3.50;;;2.77;;
3068;SDS011;1545;51.728;8.796;2023-07-31T11:38:23;5.47;;;2.40;;
3068;SDS011;1545;51.728;8.796;2023-07-31T11:40:50;4.37;;;2.50;;
3068;SDS011;1545;51.728;8.796;2023-07-31T11:43:18;3.23;;;2.37;;
3068;SDS011;1545;51.728;8.796;2023-07-31T11:45:47;5.60;;;2.50;;
3068;SDS011;1545;51.728;8.796;2023-07-31T11:48:36;2.60;;;2.20;;
3068;SDS011;1545;51.728;8.796;2023-07-31T11:51:02;4.73;;;2.17;;
3068;SDS011;1545;51.728;8.796;2023-07-31T11:56:07;4.30;;;3.00;;
3068;SDS011;1545;51.728;8.796;2023-07-31T11:58:34;2.40;;;2.27;;
3068;SDS011;1545;51.728;8.796;2023-07-31T12:01:01;3.10;;;2.43;;
3068;SDS011;1545;51.728;8.796;2023-07-31T12:03:27;6.75;;;2.28;;
3068;SDS011;1545;51.728;8.796;2023-07-31T12:05:53;3.47;;;2.57;;
3068;SDS011;1545;51.728;8.796;2023-07-31T12:08:23;3.77;;;2.50;;
3068;SDS011;1545;51.728;8.796;2023-07-31T12:10:50;2.83;;;2.20;;
3068;SDS011;1545;51.728;8.796;2023-07-31T12:13:23;4.13;;;2.00;;
3068;SDS011;1545;51.728;8.796;2023-07-31T12:15:54;2.53;;;2.10;;
3068;SDS011;1545;51.728;8.796;2023-07-31T12:18:22;3.23;;;2.00;;
3068;SDS011;1545;51.728;8.796;2023-07-31T12:20:53;2.73;;;1.90;;
3068;SDS011;1545;51.728;8.796;2023-07-31T12:23:22;2.77;;;2.00;;
3068;SDS011;1545;51.728;8.796;2023-07-31T12:26:08;3.53;;;2.00;;
3068;SDS011;1545;51.728;8.796;2023-07-31T12:28:36;11.47;;;2.40;;
3068;SDS011;1545;51.728;8.796;2023-07-31T12:31:03;3.73;;;2.10;;
3068;SDS011;1545;51.728;8.796;2023-07-31T12:33:33;2.43;;;1.70;;
3068;SDS011;1545;51.728;8.796;2023-07-31T12:36:00;1.73;;;1.70;;
3068;SDS011;1545;51.728;8.796;2023-07-31T12:38:27;2.97;;;1.80;;
3068;SDS011;1545;51.728;8.796;2023-07-31T12:40:53;5.13;;;1.83;;
3068;SDS011;1545;51.728;8.796;2023-07-31T12:43:18;3.57;;;2.13;;
3068;SDS011;1545;51.728;8.796;2023-07-31T12:45:44;5.33;;;1.83;;
3068;SDS011;1545;51.728;8.796;2023-07-31T12:48:11;3.67;;;1.87;;
3068;SDS011;1545;51.728;8.796;2023-07-31T12:50:36;3.70;;;2.00;;
3068;SDS011;1545;51.728;8.796;2023-07-31T12:53:02;2.30;;;1.90;;
3068;SDS011;1545;51.728;8.796;2023-07-31T12:55:28;4.63;;;1.97;;
3068;SDS011;1545;51.728;8.796;2023-07-31T12:57:55;3.40;;;2.13;;
3068;SDS011;1545;51.728;8.796;2023-07-31T13:00:21;2.97;;;2.40;;
3068;SDS011;1545;51.728;8.796;2023-07-31T13:02:47;3.40;;;2.60;;
3068;SDS011;1545;51.728;8.796;2023-07-31T13:05:12;3.87;;;2.57;;
3068;SDS011;1545;51.728;8.796;2023-07-31T13:07:38;5.43;;;3.20;;
3068;SDS011;1545;51.728;8.796;2023-07-31T13:10:05;8.37;;;3.30;;
3068;SDS011;1545;51.728;8.796;2023-07-31T13:12:31;4.13;;;3.27;;
3068;SDS011;1545;51.728;8.796;2023-07-31T13:14:57;5.83;;;3.60;;
3068;SDS011;1545;51.728;8.796;2023-07-31T13:17:22;3.57;;;3.17;;
3068;SDS011;1545;51.728;8.796;2023-07-31T13:19:48;3.13;;;3.03;;
3068;SDS011;1545;51.728;8.796;2023-07-31T13:22:13;6.17;;;3.10;;
3068;SDS011;1545;51.728;8.796;2023-07-31T13:24:39;6.20;;;3.00;;
3068;SDS011;1545;51.728;8.796;2023-07-31T13:27:04;5.43;;;3.30;;
3068;SDS011;1545;51.728;8.796;2023-07-31T13:29:30;4.97;;;3.43;;
3068;SDS011;1545;51.728;8.796;2023-07-31T13:31:57;3.63;;;3.03;;
3068;SDS011;1545;51.728;8.796;2023-07-31T13:34:23;4.13;;;3.30;;
3068;SDS011;1545;51.728;8.796;2023-07-31T13:36:48;11.47;;;3.80;;
3068;SDS011;1545;51.728;8.796;2023-07-31T13:39:14;6.47;;;3.03;;
3068;SDS011;1545;51.728;8.796;2023-07-31T13:41:39;4.30;;;3.37;;
3068;SDS011;1545;51.728;8.796;2023-07-31T13:44:05;5.73;;;2.80;;
3068;SDS011;1545;51.728;8.796;2023-07-31T13:46:30;5.37;;;3.83;;
3068;SDS011;1545;51.728;8.796;2023-07-31T13:48:57;4.90;;;3.37;;
3068;SDS011;1545;51.728;8.796;2023-07-31T13:51:24;4.90;;;3.20;;
3068;SDS011;1545;51.728;8.796;2023-07-31T13:53:50;5.70;;;4.07;;
3068;SDS011;1545;51.728;8.796;2023-07-31T13:56:16;3.37;;;2.80;;
3068;SDS011;1545;51.728;8.796;2023-07-31T13:58:41;2.93;;;2.70;;
3068;SDS011;1545;51.728;8.796;2023-07-31T14:01:07;5.50;;;3.30;;
3068;SDS011;1545;51.728;8.796;2023-07-31T14:03:32;3.77;;;2.90;;
3068;SDS011;1545;51.728;8.796;2023-07-31T14:05:58;5.53;;;3.50;;
3068;SDS011;1545;51.728;8.796;2023-07-31T14:08:24;2.63;;;2.43;;
3068;SDS011;1545;51.728;8.796;2023-07-31T14:10:49;5.57;;;3.80;;
3068;SDS011;1545;51.728;8.796;2023-07-31T14:13:15;2.87;;;2.63;;
3068;SDS011;1545;51.728;8.796;2023-07-31T14:15:43;4.40;;;2.77;;
3068;SDS011;1545;51.728;8.796;2023-07-31T14:18:09;5.97;;;3.00;;
3068;SDS011;1545;51.728;8.796;2023-07-31T14:20:35;3.70;;;2.87;;
3068;SDS011;1545;51.728;8.796;2023-07-31T14:23:00;7.60;;;2.80;;
3068;SDS011;1545;51.728;8.796;2023-07-31T14:25:28;2.87;;;2.70;;
3068;SDS011;1545;51.728;8.796;2023-07-31T14:27:54;4.20;;;3.10;;
3068;SDS011;1545;51.728;8.796;2023-07-31T14:30:19;3.70;;;3.10;;
3068;SDS011;1545;51.728;8.796;2023-07-31T14:32:45;4.90;;;3.13;;
3068;SDS011;1545;51.728;8.796;2023-07-31T14:35:11;4.90;;;3.87;;
3068;SDS011;1545;51.728;8.796;2023-07-31T14:37:40;3.53;;;2.97;;
3068;SDS011;1545;51.728;8.796;2023-07-31T14:40:07;5.03;;;3.50;;
3068;SDS011;1545;51.728;8.796;2023-07-31T14:42:34;4.47;;;3.53;;
3068;SDS011;1545;51.728;8.796;2023-07-31T14:45:00;3.93;;;3.43;;
3068;SDS011;1545;51.728;8.796;2023-07-31T14:47:26;3.87;;;3.50;;
3068;SDS011;1545;51.728;8.796;2023-07-31T14:49:53;3.83;;;3.33;;
3068;SDS011;1545;51.728;8.796;2023-07-31T14:52:18;3.93;;;3.50;;
3068;SDS011;1545;51.728;8.796;2023-07-31T14:54:44;3.87;;;3.70;;
3068;SDS011;1545;51.728;8.796;2023-07-31T14:57:10;4.70;;;3.80;;
3068;SDS011;1545;51.728;8.796;2023-07-31T14:59:35;7.50;;;3.67;;
3068;SDS011;1545;51.728;8.796;2023-07-31T15:02:01;5.20;;;3.57;;
3068;SDS011;1545;51.728;8.796;2023-07-31T15:04:27;4.23;;;3.93;;
3068;SDS011;1545;51.728;8.796;2023-07-31T15:06:52;6.53;;;5.03;;
3068;SDS011;1545;51.728;8.796;2023-07-31T15:09:18;5.07;;;4.33;;
3068;SDS011;1545;51.728;8.796;2023-07-31T15:11:43;5.03;;;4.20;;
3068;SDS011;1545;51.728;8.796;2023-07-31T15:14:09;5.10;;;4.30;;
3068;SDS011;1545;51.728;8.796;2023-07-31T15:16:35;5.83;;;4.13;;
3068;SDS011;1545;51.728;8.796;2023-07-31T15:19:00;5.33;;;4.20;;
3068;SDS011;1545;51.728;8.796;2023-07-31T15:21:26;7.50;;;4.07;;
3068;SDS011;1545;51.728;8.796;2023-07-31T15:23:51;5.37;;;4.23;;